KRVS/RVS METAR and TAF weather

Enter ICAO airport designator
Station Type Date Time Source
KRVS METAR 2019/12/10 18:53 UTC NOAA

KRVS 101853Z 00000KT 10SM CLR 06/M09 A3035 RMK AO2 SLP286 T00561089


Station Type Date Time Source
KRVS Decoded METAR 2019/12/10 18:53 UTC NOAA

TULSA JONES JR. AIRPORT, OK, United States (KRVS) 36-03N 095-59W 200M
Dec 10, 2019 - 01:53 PM EST / 2019.12.10 1853 UTC
Wind: Calm:0
Visibility: 10 mile(s):0
Sky conditions: clear
Temperature: 42.1 F (5.6 C)
Dew Point: 16.0 F (-8.9 C)
Relative Humidity: 34%
Pressure (altimeter): 30.35 in. Hg (1027 hPa)
ob: KRVS 101853Z 00000KT 10SM CLR 06/M09 A3035 RMK AO2 SLP286 T00561089
cycle: 19

Station Type Date Time Source
KRVS TAF 2019/12/10 18:36 UTC NOAA

TAF KRVS 101733Z 1018/1118 VRB03KT P6SM SCT250
FM110900 19007KT P6SM SKC

Example: see airport list